sensor_id;sensor_type;location;lat;lon;timestamp;P1;durP1;ratioP1;P2;durP2;ratioP2
63008;SDS011;49099;28.428;-16.488;2022-11-28T00:04:07;16.10;;;2.47;;
63008;SDS011;49099;28.428;-16.488;2022-11-28T00:06:40;12.95;;;2.30;;
63008;SDS011;49099;28.428;-16.488;2022-11-28T00:09:11;14.10;;;2.42;;
63008;SDS011;49099;28.428;-16.488;2022-11-28T00:11:40;18.02;;;3.00;;
63008;SDS011;49099;28.428;-16.488;2022-11-28T00:14:08;22.80;;;2.90;;
63008;SDS011;49099;28.428;-16.488;2022-11-28T00:16:36;18.52;;;3.08;;
63008;SDS011;49099;28.428;-16.488;2022-11-28T00:19:03;17.98;;;3.75;;
63008;SDS011;49099;28.428;-16.488;2022-11-28T00:21:31;18.75;;;3.38;;
63008;SDS011;49099;28.428;-16.488;2022-11-28T00:23:59;20.70;;;3.33;;
63008;SDS011;49099;28.428;-16.488;2022-11-28T00:26:30;16.38;;;2.80;;
63008;SDS011;49099;28.428;-16.488;2022-11-28T00:29:02;13.20;;;2.55;;
63008;SDS011;49099;28.428;-16.488;2022-11-28T00:31:31;13.07;;;2.60;;
63008;SDS011;49099;28.428;-16.488;2022-11-28T00:33:59;20.80;;;2.80;;
63008;SDS011;49099;28.428;-16.488;2022-11-28T00:36:29;16.58;;;2.22;;
63008;SDS011;49099;28.428;-16.488;2022-11-28T00:38:57;18.13;;;2.75;;
63008;SDS011;49099;28.428;-16.488;2022-11-28T00:41:25;14.13;;;2.58;;
63008;SDS011;49099;28.428;-16.488;2022-11-28T00:43:55;13.98;;;2.40;;
63008;SDS011;49099;28.428;-16.488;2022-11-28T00:46:23;15.85;;;2.90;;
63008;SDS011;49099;28.428;-16.488;2022-11-28T00:48:50;20.60;;;2.80;;
63008;SDS011;49099;28.428;-16.488;2022-11-28T00:51:20;21.10;;;2.80;;
63008;SDS011;49099;28.428;-16.488;2022-11-28T00:53:49;16.73;;;2.80;;
63008;SDS011;49099;28.428;-16.488;2022-11-28T00:56:19;17.35;;;2.85;;
63008;SDS011;49099;28.428;-16.488;2022-11-28T00:58:52;16.52;;;3.05;;
63008;SDS011;49099;28.428;-16.488;2022-11-28T01:01:33;16.90;;;2.83;;
63008;SDS011;49099;28.428;-16.488;2022-11-28T01:04:04;16.10;;;2.40;;
63008;SDS011;49099;28.428;-16.488;2022-11-28T01:06:33;19.98;;;2.95;;
63008;SDS011;49099;28.428;-16.488;2022-11-28T01:09:04;17.00;;;2.70;;
63008;SDS011;49099;28.428;-16.488;2022-11-28T01:11:52;15.40;;;2.65;;
63008;SDS011;49099;28.428;-16.488;2022-11-28T01:14:21;18.75;;;2.80;;
63008;SDS011;49099;28.428;-16.488;2022-11-28T01:16:49;18.67;;;2.75;;
63008;SDS011;49099;28.428;-16.488;2022-11-28T01:19:17;17.42;;;2.80;;
63008;SDS011;49099;28.428;-16.488;2022-11-28T01:21:44;16.23;;;2.75;;
63008;SDS011;49099;28.428;-16.488;2022-11-28T01:24:12;19.65;;;2.67;;
63008;SDS011;49099;28.428;-16.488;2022-11-28T01:26:40;16.42;;;2.60;;
63008;SDS011;49099;28.428;-16.488;2022-11-28T01:29:07;13.60;;;2.42;;
63008;SDS011;49099;28.428;-16.488;2022-11-28T01:31:35;19.15;;;3.00;;
63008;SDS011;49099;28.428;-16.488;2022-11-28T01:34:02;21.80;;;3.08;;
63008;SDS011;49099;28.428;-16.488;2022-11-28T01:36:30;21.23;;;2.97;;
63008;SDS011;49099;28.428;-16.488;2022-11-28T01:38:57;19.02;;;3.30;;
63008;SDS011;49099;28.428;-16.488;2022-11-28T01:41:25;17.90;;;3.17;;
63008;SDS011;49099;28.428;-16.488;2022-11-28T01:43:57;25.17;;;3.60;;
63008;SDS011;49099;28.428;-16.488;2022-11-28T01:46:28;20.13;;;3.15;;
63008;SDS011;49099;28.428;-16.488;2022-11-28T01:48:57;19.00;;;2.92;;
63008;SDS011;49099;28.428;-16.488;2022-11-28T01:51:28;28.30;;;3.40;;
63008;SDS011;49099;28.428;-16.488;2022-11-28T01:53:56;22.38;;;3.55;;
63008;SDS011;49099;28.428;-16.488;2022-11-28T01:56:26;21.27;;;3.28;;
63008;SDS011;49099;28.428;-16.488;2022-11-28T01:58:58;19.98;;;3.15;;
63008;SDS011;49099;28.428;-16.488;2022-11-28T02:01:30;19.53;;;3.10;;
63008;SDS011;49099;28.428;-16.488;2022-11-28T02:03:57;18.48;;;2.55;;
63008;SDS011;49099;28.428;-16.488;2022-11-28T02:06:25;15.68;;;3.03;;
63008;SDS011;49099;28.428;-16.488;2022-11-28T02:08:54;17.83;;;3.25;;
63008;SDS011;49099;28.428;-16.488;2022-11-28T02:17:20;15.60;;;2.70;;
63008;SDS011;49099;28.428;-16.488;2022-11-28T02:34:28;16.00;;;2.78;;
63008;SDS011;49099;28.428;-16.488;2022-11-28T02:37:13;17.25;;;3.15;;
63008;SDS011;49099;28.428;-16.488;2022-11-28T02:40:35;13.48;;;2.63;;
63008;SDS011;49099;28.428;-16.488;2022-11-28T02:46:00;17.92;;;3.33;;
63008;SDS011;49099;28.428;-16.488;2022-11-28T02:48:37;18.73;;;3.13;;
63008;SDS011;49099;28.428;-16.488;2022-11-28T02:51:25;14.10;;;2.72;;
63008;SDS011;49099;28.428;-16.488;2022-11-28T02:53:54;14.10;;;2.63;;
63008;SDS011;49099;28.428;-16.488;2022-11-28T02:56:23;17.58;;;2.72;;
63008;SDS011;49099;28.428;-16.488;2022-11-28T02:58:50;16.50;;;3.20;;
63008;SDS011;49099;28.428;-16.488;2022-11-28T03:01:20;19.98;;;2.97;;
63008;SDS011;49099;28.428;-16.488;2022-11-28T03:06:47;17.52;;;3.08;;
63008;SDS011;49099;28.428;-16.488;2022-11-28T03:24:58;18.50;;;2.67;;
63008;SDS011;49099;28.428;-16.488;2022-11-28T03:27:33;10.70;;;1.90;;
63008;SDS011;49099;28.428;-16.488;2022-11-28T03:30:09;12.20;;;2.33;;
63008;SDS011;49099;28.428;-16.488;2022-11-28T03:32:45;21.92;;;2.58;;
63008;SDS011;49099;28.428;-16.488;2022-11-28T03:35:18;12.25;;;2.47;;
63008;SDS011;49099;28.428;-16.488;2022-11-28T03:37:53;19.35;;;2.88;;
63008;SDS011;49099;28.428;-16.488;2022-11-28T03:40:27;16.60;;;2.28;;
63008;SDS011;49099;28.428;-16.488;2022-11-28T03:43:03;18.08;;;2.75;;
63008;SDS011;49099;28.428;-16.488;2022-11-28T03:45:38;11.80;;;2.30;;
63008;SDS011;49099;28.428;-16.488;2022-11-28T03:48:17;17.08;;;2.95;;
63008;SDS011;49099;28.428;-16.488;2022-11-28T03:50:51;16.05;;;2.42;;
63008;SDS011;49099;28.428;-16.488;2022-11-28T03:53:30;17.27;;;2.55;;
63008;SDS011;49099;28.428;-16.488;2022-11-28T03:56:14;17.42;;;2.58;;
63008;SDS011;49099;28.428;-16.488;2022-11-28T03:58:51;18.58;;;2.55;;
63008;SDS011;49099;28.428;-16.488;2022-11-28T04:06:57;16.33;;;2.70;;
63008;SDS011;49099;28.428;-16.488;2022-11-28T04:15:03;12.15;;;2.38;;
63008;SDS011;49099;28.428;-16.488;2022-11-28T04:17:42;13.75;;;2.42;;
63008;SDS011;49099;28.428;-16.488;2022-11-28T04:20:35;16.30;;;2.78;;
63008;SDS011;49099;28.428;-16.488;2022-11-28T04:23:09;19.50;;;3.10;;
63008;SDS011;49099;28.428;-16.488;2022-11-28T04:25:40;14.73;;;2.60;;
63008;SDS011;49099;28.428;-16.488;2022-11-28T04:28:13;16.70;;;2.63;;
63008;SDS011;49099;28.428;-16.488;2022-11-28T04:30:45;9.02;;;2.40;;
63008;SDS011;49099;28.428;-16.488;2022-11-28T04:33:15;12.15;;;2.40;;
63008;SDS011;49099;28.428;-16.488;2022-11-28T04:35:46;21.70;;;2.88;;
63008;SDS011;49099;28.428;-16.488;2022-11-28T04:38:17;14.02;;;2.85;;
63008;SDS011;49099;28.428;-16.488;2022-11-28T04:40:52;18.02;;;3.00;;
63008;SDS011;49099;28.428;-16.488;2022-11-28T04:46:38;20.10;;;3.00;;
63008;SDS011;49099;28.428;-16.488;2022-11-28T04:49:09;16.13;;;2.88;;
63008;SDS011;49099;28.428;-16.488;2022-11-28T04:51:45;19.73;;;3.38;;
63008;SDS011;49099;28.428;-16.488;2022-11-28T04:54:38;12.65;;;2.22;;
63008;SDS011;49099;28.428;-16.488;2022-11-28T05:00:11;18.73;;;3.05;;
63008;SDS011;49099;28.428;-16.488;2022-11-28T05:02:43;14.85;;;2.40;;
63008;SDS011;49099;28.428;-16.488;2022-11-28T05:05:17;17.27;;;2.88;;
63008;SDS011;49099;28.428;-16.488;2022-11-28T05:07:47;18.10;;;2.70;;
63008;SDS011;49099;28.428;-16.488;2022-11-28T05:10:14;20.23;;;3.28;;
63008;SDS011;49099;28.428;-16.488;2022-11-28T05:12:42;23.92;;;2.92;;
63008;SDS011;49099;28.428;-16.488;2022-11-28T05:15:09;13.68;;;3.00;;
63008;SDS011;49099;28.428;-16.488;2022-11-28T05:17:36;20.35;;;3.00;;
63008;SDS011;49099;28.428;-16.488;2022-11-28T05:20:08;15.00;;;2.47;;
63008;SDS011;49099;28.428;-16.488;2022-11-28T05:22:35;17.35;;;2.67;;
63008;SDS011;49099;28.428;-16.488;2022-11-28T05:25:02;11.15;;;2.20;;
63008;SDS011;49099;28.428;-16.488;2022-11-28T05:27:29;14.02;;;2.30;;
63008;SDS011;49099;28.428;-16.488;2022-11-28T05:29:56;16.52;;;2.63;;
63008;SDS011;49099;28.428;-16.488;2022-11-28T05:32:23;13.57;;;2.47;;
63008;SDS011;49099;28.428;-16.488;2022-11-28T05:34:50;13.65;;;2.60;;
63008;SDS011;49099;28.428;-16.488;2022-11-28T05:37:18;12.88;;;2.67;;
63008;SDS011;49099;28.428;-16.488;2022-11-28T05:39:45;13.13;;;2.60;;
63008;SDS011;49099;28.428;-16.488;2022-11-28T05:42:12;14.18;;;2.65;;
63008;SDS011;49099;28.428;-16.488;2022-11-28T05:44:39;15.82;;;2.97;;
63008;SDS011;49099;28.428;-16.488;2022-11-28T05:47:06;11.85;;;2.00;;
63008;SDS011;49099;28.428;-16.488;2022-11-28T05:49:33;16.23;;;2.20;;
63008;SDS011;49099;28.428;-16.488;2022-11-28T05:52:00;15.30;;;2.13;;
63008;SDS011;49099;28.428;-16.488;2022-11-28T05:54:27;10.10;;;2.17;;
63008;SDS011;49099;28.428;-16.488;2022-11-28T05:56:56;9.52;;;2.17;;
63008;SDS011;49099;28.428;-16.488;2022-11-28T05:59:23;12.70;;;2.10;;
63008;SDS011;49099;28.428;-16.488;2022-11-28T06:01:50;12.98;;;2.35;;
63008;SDS011;49099;28.428;-16.488;2022-11-28T06:04:18;9.77;;;2.15;;
63008;SDS011;49099;28.428;-16.488;2022-11-28T06:06:45;12.23;;;2.03;;
63008;SDS011;49099;28.428;-16.488;2022-11-28T06:09:14;12.45;;;1.90;;
63008;SDS011;49099;28.428;-16.488;2022-11-28T06:11:42;14.30;;;2.00;;
63008;SDS011;49099;28.428;-16.488;2022-11-28T06:14:09;13.13;;;2.15;;
63008;SDS011;49099;28.428;-16.488;2022-11-28T06:16:37;14.73;;;2.40;;
63008;SDS011;49099;28.428;-16.488;2022-11-28T06:19:04;12.65;;;2.05;;
63008;SDS011;49099;28.428;-16.488;2022-11-28T06:21:32;13.05;;;1.88;;
63008;SDS011;49099;28.428;-16.488;2022-11-28T06:23:59;11.77;;;2.13;;
63008;SDS011;49099;28.428;-16.488;2022-11-28T06:26:27;12.77;;;2.38;;
63008;SDS011;49099;28.428;-16.488;2022-11-28T06:28:54;13.40;;;2.33;;
63008;SDS011;49099;28.428;-16.488;2022-11-28T06:31:22;14.98;;;2.17;;
63008;SDS011;49099;28.428;-16.488;2022-11-28T06:33:54;10.35;;;2.00;;
63008;SDS011;49099;28.428;-16.488;2022-11-28T06:36:21;11.95;;;2.35;;
63008;SDS011;49099;28.428;-16.488;2022-11-28T06:38:49;13.98;;;2.20;;
63008;SDS011;49099;28.428;-16.488;2022-11-28T06:41:17;15.50;;;2.00;;
63008;SDS011;49099;28.428;-16.488;2022-11-28T06:43:45;15.98;;;2.28;;
63008;SDS011;49099;28.428;-16.488;2022-11-28T06:46:13;13.10;;;2.10;;
63008;SDS011;49099;28.428;-16.488;2022-11-28T06:48:43;14.65;;;2.30;;
63008;SDS011;49099;28.428;-16.488;2022-11-28T06:51:12;12.32;;;2.13;;
63008;SDS011;49099;28.428;-16.488;2022-11-28T06:53:39;14.75;;;2.25;;
63008;SDS011;49099;28.428;-16.488;2022-11-28T06:56:08;15.77;;;2.15;;
63008;SDS011;49099;28.428;-16.488;2022-11-28T06:58:37;10.13;;;1.75;;
63008;SDS011;49099;28.428;-16.488;2022-11-28T07:01:14;10.70;;;2.30;;
63008;SDS011;49099;28.428;-16.488;2022-11-28T07:03:43;18.20;;;2.85;;
63008;SDS011;49099;28.428;-16.488;2022-11-28T07:06:11;12.35;;;2.35;;
63008;SDS011;49099;28.428;-16.488;2022-11-28T07:08:40;11.90;;;2.50;;
63008;SDS011;49099;28.428;-16.488;2022-11-28T07:13:35;12.77;;;2.17;;
63008;SDS011;49099;28.428;-16.488;2022-11-28T07:16:02;15.23;;;2.33;;
63008;SDS011;49099;28.428;-16.488;2022-11-28T07:18:30;11.95;;;2.38;;
63008;SDS011;49099;28.428;-16.488;2022-11-28T07:20:58;16.25;;;2.40;;
63008;SDS011;49099;28.428;-16.488;2022-11-28T07:23:25;11.93;;;1.95;;
63008;SDS011;49099;28.428;-16.488;2022-11-28T07:25:56;16.73;;;2.50;;
63008;SDS011;49099;28.428;-16.488;2022-11-28T07:28:28;12.95;;;2.35;;
63008;SDS011;49099;28.428;-16.488;2022-11-28T07:31:16;12.25;;;2.05;;
63008;SDS011;49099;28.428;-16.488;2022-11-28T07:33:47;12.82;;;2.70;;
63008;SDS011;49099;28.428;-16.488;2022-11-28T07:36:20;13.77;;;2.15;;
63008;SDS011;49099;28.428;-16.488;2022-11-28T07:38:53;21.20;;;2.40;;
63008;SDS011;49099;28.428;-16.488;2022-11-28T07:41:22;10.60;;;1.80;;
63008;SDS011;49099;28.428;-16.488;2022-11-28T07:43:53;17.13;;;2.33;;
63008;SDS011;49099;28.428;-16.488;2022-11-28T07:46:22;14.50;;;2.28;;
63008;SDS011;49099;28.428;-16.488;2022-11-28T07:48:51;16.60;;;2.15;;
63008;SDS011;49099;28.428;-16.488;2022-11-28T07:51:24;18.77;;;2.85;;
63008;SDS011;49099;28.428;-16.488;2022-11-28T07:53:54;16.70;;;2.30;;
63008;SDS011;49099;28.428;-16.488;2022-11-28T07:56:24;15.82;;;2.50;;
63008;SDS011;49099;28.428;-16.488;2022-11-28T07:59:09;16.10;;;2.88;;
63008;SDS011;49099;28.428;-16.488;2022-11-28T08:01:37;15.13;;;2.70;;
63008;SDS011;49099;28.428;-16.488;2022-11-28T08:04:05;11.38;;;2.80;;
63008;SDS011;49099;28.428;-16.488;2022-11-28T08:06:38;14.65;;;2.53;;
63008;SDS011;49099;28.428;-16.488;2022-11-28T08:09:07;14.18;;;2.33;;
63008;SDS011;49099;28.428;-16.488;2022-11-28T08:11:34;11.93;;;2.28;;
63008;SDS011;49099;28.428;-16.488;2022-11-28T08:14:02;16.65;;;2.65;;
63008;SDS011;49099;28.428;-16.488;2022-11-28T08:16:30;17.35;;;2.90;;
63008;SDS011;49099;28.428;-16.488;2022-11-28T08:19:01;18.33;;;3.00;;
63008;SDS011;49099;28.428;-16.488;2022-11-28T08:21:30;9.48;;;2.10;;
63008;SDS011;49099;28.428;-16.488;2022-11-28T08:23:58;10.65;;;2.35;;
63008;SDS011;49099;28.428;-16.488;2022-11-28T08:26:27;12.77;;;2.05;;
63008;SDS011;49099;28.428;-16.488;2022-11-28T08:28:57;16.05;;;2.60;;
63008;SDS011;49099;28.428;-16.488;2022-11-28T08:31:25;13.95;;;2.85;;
63008;SDS011;49099;28.428;-16.488;2022-11-28T08:33:56;17.52;;;2.80;;
63008;SDS011;49099;28.428;-16.488;2022-11-28T08:36:24;17.55;;;2.65;;
63008;SDS011;49099;28.428;-16.488;2022-11-28T08:38:54;14.52;;;2.78;;
63008;SDS011;49099;28.428;-16.488;2022-11-28T08:41:41;16.45;;;3.08;;
63008;SDS011;49099;28.428;-16.488;2022-11-28T08:44:08;12.75;;;2.80;;
63008;SDS011;49099;28.428;-16.488;2022-11-28T08:46:35;13.98;;;2.60;;
63008;SDS011;49099;28.428;-16.488;2022-11-28T08:49:02;19.63;;;3.05;;
63008;SDS011;49099;28.428;-16.488;2022-11-28T08:51:30;16.65;;;2.67;;
63008;SDS011;49099;28.428;-16.488;2022-11-28T08:53:57;20.70;;;2.75;;
63008;SDS011;49099;28.428;-16.488;2022-11-28T08:56:25;18.45;;;2.22;;
63008;SDS011;49099;28.428;-16.488;2022-11-28T08:58:54;11.13;;;2.03;;
63008;SDS011;49099;28.428;-16.488;2022-11-28T09:01:22;14.25;;;2.05;;
63008;SDS011;49099;28.428;-16.488;2022-11-28T09:03:50;10.43;;;1.83;;
63008;SDS011;49099;28.428;-16.488;2022-11-28T09:06:19;10.23;;;1.88;;
63008;SDS011;49099;28.428;-16.488;2022-11-28T09:08:47;15.85;;;2.30;;
63008;SDS011;49099;28.428;-16.488;2022-11-28T09:11:16;12.30;;;2.22;;
63008;SDS011;49099;28.428;-16.488;2022-11-28T09:13:45;12.10;;;2.13;;
63008;SDS011;49099;28.428;-16.488;2022-11-28T09:16:13;17.33;;;2.40;;
63008;SDS011;49099;28.428;-16.488;2022-11-28T09:18:41;11.15;;;2.35;;
63008;SDS011;49099;28.428;-16.488;2022-11-28T09:21:09;14.95;;;2.58;;
63008;SDS011;49099;28.428;-16.488;2022-11-28T09:23:38;16.92;;;2.33;;
63008;SDS011;49099;28.428;-16.488;2022-11-28T09:26:11;10.07;;;2.28;;
63008;SDS011;49099;28.428;-16.488;2022-11-28T09:28:40;9.95;;;2.30;;
63008;SDS011;49099;28.428;-16.488;2022-11-28T09:31:07;12.70;;;2.40;;
63008;SDS011;49099;28.428;-16.488;2022-11-28T09:33:35;9.75;;;2.05;;
63008;SDS011;49099;28.428;-16.488;2022-11-28T09:36:06;18.95;;;2.42;;
63008;SDS011;49099;28.428;-16.488;2022-11-28T09:38:34;16.75;;;2.85;;
63008;SDS011;49099;28.428;-16.488;2022-11-28T09:41:02;15.73;;;2.42;;
63008;SDS011;49099;28.428;-16.488;2022-11-28T09:43:43;12.82;;;2.38;;
63008;SDS011;49099;28.428;-16.488;2022-11-28T09:46:17;13.68;;;2.60;;
63008;SDS011;49099;28.428;-16.488;2022-11-28T09:48:51;11.00;;;2.15;;
63008;SDS011;49099;28.428;-16.488;2022-11-28T09:54:19;14.98;;;3.00;;
63008;SDS011;49099;28.428;-16.488;2022-11-28T09:56:54;16.00;;;2.58;;
63008;SDS011;49099;28.428;-16.488;2022-11-28T09:59:25;15.45;;;2.42;;
63008;SDS011;49099;28.428;-16.488;2022-11-28T10:07:07;14.57;;;2.40;;
63008;SDS011;49099;28.428;-16.488;2022-11-28T10:12:41;10.48;;;2.00;;
63008;SDS011;49099;28.428;-16.488;2022-11-28T10:23:44;18.35;;;2.70;;
63008;SDS011;49099;28.428;-16.488;2022-11-28T10:26:33;18.50;;;3.80;;
63008;SDS011;49099;28.428;-16.488;2022-11-28T10:29:15;19.52;;;3.35;;
63008;SDS011;49099;28.428;-16.488;2022-11-28T10:31:53;14.30;;;2.75;;
63008;SDS011;49099;28.428;-16.488;2022-11-28T10:34:26;20.95;;;3.25;;
63008;SDS011;49099;28.428;-16.488;2022-11-28T10:37:10;16.90;;;2.95;;
63008;SDS011;49099;28.428;-16.488;2022-11-28T10:39:41;20.88;;;3.00;;
63008;SDS011;49099;28.428;-16.488;2022-11-28T10:44:43;20.50;;;3.83;;
63008;SDS011;49099;28.428;-16.488;2022-11-28T10:47:42;13.60;;;2.90;;
63008;SDS011;49099;28.428;-16.488;2022-11-28T10:59:35;24.63;;;4.15;;
63008;SDS011;49099;28.428;-16.488;2022-11-28T11:02:19;18.77;;;3.03;;
63008;SDS011;49099;28.428;-16.488;2022-11-28T11:04:57;18.88;;;3.08;;
63008;SDS011;49099;28.428;-16.488;2022-11-28T11:07:28;20.00;;;3.42;;
63008;SDS011;49099;28.428;-16.488;2022-11-28T11:10:40;21.08;;;3.60;;
63008;SDS011;49099;28.428;-16.488;2022-11-28T11:12:57;24.52;;;4.88;;
63008;SDS011;49099;28.428;-16.488;2022-11-28T11:17:56;25.55;;;4.60;;
63008;SDS011;49099;28.428;-16.488;2022-11-28T11:22:58;22.85;;;4.07;;
63008;SDS011;49099;28.428;-16.488;2022-11-28T11:25:44;16.55;;;3.38;;
63008;SDS011;49099;28.428;-16.488;2022-11-28T11:31:18;22.92;;;3.90;;
63008;SDS011;49099;28.428;-16.488;2022-11-28T11:33:46;21.00;;;3.65;;
63008;SDS011;49099;28.428;-16.488;2022-11-28T11:36:21;28.33;;;4.10;;
63008;SDS011;49099;28.428;-16.488;2022-11-28T11:41:42;37.80;;;5.68;;
63008;SDS011;49099;28.428;-16.488;2022-11-28T11:46:50;30.42;;;6.05;;
63008;SDS011;49099;28.428;-16.488;2022-11-28T11:52:05;38.53;;;7.28;;
63008;SDS011;49099;28.428;-16.488;2022-11-28T11:54:38;42.22;;;6.50;;
63008;SDS011;49099;28.428;-16.488;2022-11-28T11:57:27;40.45;;;6.20;;
63008;SDS011;49099;28.428;-16.488;2022-11-28T12:02:43;37.00;;;6.90;;
63008;SDS011;49099;28.428;-16.488;2022-11-28T12:08:34;28.77;;;5.70;;
63008;SDS011;49099;28.428;-16.488;2022-11-28T12:13:53;29.30;;;5.45;;
63008;SDS011;49099;28.428;-16.488;2022-11-28T12:39:35;42.72;;;6.28;;
63008;SDS011;49099;28.428;-16.488;2022-11-28T12:42:10;30.50;;;6.32;;
63008;SDS011;49099;28.428;-16.488;2022-11-28T12:44:52;36.88;;;6.30;;
63008;SDS011;49099;28.428;-16.488;2022-11-28T12:55:46;35.35;;;6.13;;
63008;SDS011;49099;28.428;-16.488;2022-11-28T12:58:21;29.50;;;5.72;;
63008;SDS011;49099;28.428;-16.488;2022-11-28T13:03:35;34.80;;;6.15;;
63008;SDS011;49099;28.428;-16.488;2022-11-28T13:11:53;36.10;;;6.43;;
63008;SDS011;49099;28.428;-16.488;2022-11-28T13:14:37;45.28;;;6.82;;
63008;SDS011;49099;28.428;-16.488;2022-11-28T13:20:36;50.47;;;7.05;;
63008;SDS011;49099;28.428;-16.488;2022-11-28T13:23:01;30.35;;;5.47;;
63008;SDS011;49099;28.428;-16.488;2022-11-28T13:25:41;32.08;;;5.55;;
63008;SDS011;49099;28.428;-16.488;2022-11-28T13:28:32;35.20;;;5.63;;
63008;SDS011;49099;28.428;-16.488;2022-11-28T13:31:16;38.25;;;6.68;;
63008;SDS011;49099;28.428;-16.488;2022-11-28T13:33:56;37.65;;;6.32;;
63008;SDS011;49099;28.428;-16.488;2022-11-28T13:36:41;34.70;;;6.68;;
63008;SDS011;49099;28.428;-16.488;2022-11-28T13:39:34;46.65;;;8.70;;
63008;SDS011;49099;28.428;-16.488;2022-11-28T13:42:29;27.67;;;6.20;;
63008;SDS011;49099;28.428;-16.488;2022-11-28T13:45:32;37.38;;;6.78;;
63008;SDS011;49099;28.428;-16.488;2022-11-28T13:51:23;32.78;;;6.72;;
63008;SDS011;49099;28.428;-16.488;2022-11-28T13:59:51;28.80;;;6.00;;
63008;SDS011;49099;28.428;-16.488;2022-11-28T14:04:59;34.42;;;6.65;;
63008;SDS011;49099;28.428;-16.488;2022-11-28T14:07:28;30.75;;;6.00;;
63008;SDS011;49099;28.428;-16.488;2022-11-28T14:10:05;43.67;;;8.98;;
63008;SDS011;49099;28.428;-16.488;2022-11-28T14:15:51;48.28;;;7.65;;
63008;SDS011;49099;28.428;-16.488;2022-11-28T14:18:42;28.65;;;6.10;;
63008;SDS011;49099;28.428;-16.488;2022-11-28T14:26:44;40.22;;;6.38;;
63008;SDS011;49099;28.428;-16.488;2022-11-28T14:29:46;30.08;;;6.57;;
63008;SDS011;49099;28.428;-16.488;2022-11-28T14:32:06;38.80;;;7.05;;
63008;SDS011;49099;28.428;-16.488;2022-11-28T14:34:57;40.05;;;7.60;;
63008;SDS011;49099;28.428;-16.488;2022-11-28T14:40:01;39.28;;;7.68;;
63008;SDS011;49099;28.428;-16.488;2022-11-28T14:50:45;35.78;;;5.57;;
63008;SDS011;49099;28.428;-16.488;2022-11-28T14:58:46;36.58;;;5.72;;
63008;SDS011;49099;28.428;-16.488;2022-11-28T15:01:24;29.70;;;5.10;;
63008;SDS011;49099;28.428;-16.488;2022-11-28T15:06:31;25.25;;;4.78;;
63008;SDS011;49099;28.428;-16.488;2022-11-28T15:09:07;19.83;;;4.13;;
63008;SDS011;49099;28.428;-16.488;2022-11-28T15:14:30;31.52;;;5.80;;
63008;SDS011;49099;28.428;-16.488;2022-11-28T15:17:02;42.10;;;7.03;;
63008;SDS011;49099;28.428;-16.488;2022-11-28T15:19:39;27.15;;;5.35;;
63008;SDS011;49099;28.428;-16.488;2022-11-28T15:24:58;34.35;;;6.10;;
63008;SDS011;49099;28.428;-16.488;2022-11-28T15:27:25;32.67;;;6.30;;
63008;SDS011;49099;28.428;-16.488;2022-11-28T15:29:57;31.23;;;5.40;;
63008;SDS011;49099;28.428;-16.488;2022-11-28T15:32:26;33.42;;;5.15;;
63008;SDS011;49099;28.428;-16.488;2022-11-28T15:34:59;26.90;;;4.72;;
63008;SDS011;49099;28.428;-16.488;2022-11-28T15:37:36;24.60;;;4.82;;
63008;SDS011;49099;28.428;-16.488;2022-11-28T15:40:03;30.05;;;4.95;;
63008;SDS011;49099;28.428;-16.488;2022-11-28T15:42:32;31.52;;;4.68;;
63008;SDS011;49099;28.428;-16.488;2022-11-28T15:45:07;21.35;;;4.07;;
63008;SDS011;49099;28.428;-16.488;2022-11-28T15:47:43;23.10;;;4.63;;
63008;SDS011;49099;28.428;-16.488;2022-11-28T15:50:13;24.63;;;3.95;;
63008;SDS011;49099;28.428;-16.488;2022-11-28T15:52:58;29.85;;;5.03;;
63008;SDS011;49099;28.428;-16.488;2022-11-28T15:55:32;31.35;;;5.25;;
63008;SDS011;49099;28.428;-16.488;2022-11-28T16:00:51;26.42;;;4.68;;
63008;SDS011;49099;28.428;-16.488;2022-11-28T16:03:25;28.63;;;4.60;;
63008;SDS011;49099;28.428;-16.488;2022-11-28T16:05:56;30.35;;;5.22;;
63008;SDS011;49099;28.428;-16.488;2022-11-28T16:08:28;28.08;;;4.30;;
63008;SDS011;49099;28.428;-16.488;2022-11-28T16:11:01;27.50;;;4.90;;
63008;SDS011;49099;28.428;-16.488;2022-11-28T16:13:31;31.00;;;5.13;;
63008;SDS011;49099;28.428;-16.488;2022-11-28T16:15:59;33.65;;;5.10;;
63008;SDS011;49099;28.428;-16.488;2022-11-28T16:18:29;36.85;;;4.90;;
63008;SDS011;49099;28.428;-16.488;2022-11-28T16:20:57;26.33;;;4.65;;
63008;SDS011;49099;28.428;-16.488;2022-11-28T16:23:29;26.65;;;4.38;;
63008;SDS011;49099;28.428;-16.488;2022-11-28T16:26:04;31.63;;;5.18;;
63008;SDS011;49099;28.428;-16.488;2022-11-28T16:28:34;25.75;;;5.03;;
63008;SDS011;49099;28.428;-16.488;2022-11-28T16:31:10;33.67;;;4.53;;
63008;SDS011;49099;28.428;-16.488;2022-11-28T16:33:39;27.25;;;4.20;;
63008;SDS011;49099;28.428;-16.488;2022-11-28T16:36:15;32.63;;;5.00;;
63008;SDS011;49099;28.428;-16.488;2022-11-28T16:38:46;42.58;;;5.53;;
63008;SDS011;49099;28.428;-16.488;2022-11-28T16:41:16;30.88;;;5.45;;
63008;SDS011;49099;28.428;-16.488;2022-11-28T16:44:14;30.10;;;4.60;;
63008;SDS011;49099;28.428;-16.488;2022-11-28T16:46:48;27.65;;;5.40;;
63008;SDS011;49099;28.428;-16.488;2022-11-28T16:52:57;32.22;;;5.25;;
63008;SDS011;49099;28.428;-16.488;2022-11-28T16:54:59;29.42;;;5.38;;
63008;SDS011;49099;28.428;-16.488;2022-11-28T16:57:43;24.92;;;4.78;;
63008;SDS011;49099;28.428;-16.488;2022-11-28T17:00:11;29.85;;;4.70;;
63008;SDS011;49099;28.428;-16.488;2022-11-28T17:02:39;34.30;;;5.70;;
63008;SDS011;49099;28.428;-16.488;2022-11-28T17:05:06;32.80;;;5.45;;
63008;SDS011;49099;28.428;-16.488;2022-11-28T17:07:34;29.25;;;5.45;;
63008;SDS011;49099;28.428;-16.488;2022-11-28T17:10:02;37.22;;;10.65;;
63008;SDS011;49099;28.428;-16.488;2022-11-28T17:12:33;30.50;;;5.82;;
63008;SDS011;49099;28.428;-16.488;2022-11-28T17:15:04;29.02;;;5.85;;
63008;SDS011;49099;28.428;-16.488;2022-11-28T17:17:36;32.05;;;5.53;;
63008;SDS011;49099;28.428;-16.488;2022-11-28T17:20:03;26.38;;;4.97;;
63008;SDS011;49099;28.428;-16.488;2022-11-28T17:22:36;31.45;;;5.15;;
63008;SDS011;49099;28.428;-16.488;2022-11-28T17:25:08;30.98;;;4.90;;
63008;SDS011;49099;28.428;-16.488;2022-11-28T17:27:40;35.13;;;5.18;;
63008;SDS011;49099;28.428;-16.488;2022-11-28T17:30:14;27.95;;;5.28;;
63008;SDS011;49099;28.428;-16.488;2022-11-28T17:32:43;30.67;;;5.50;;
63008;SDS011;49099;28.428;-16.488;2022-11-28T17:35:13;32.78;;;5.25;;
63008;SDS011;49099;28.428;-16.488;2022-11-28T17:37:55;28.13;;;4.65;;
63008;SDS011;49099;28.428;-16.488;2022-11-28T17:40:22;24.23;;;4.90;;
63008;SDS011;49099;28.428;-16.488;2022-11-28T17:42:58;21.90;;;4.85;;
63008;SDS011;49099;28.428;-16.488;2022-11-28T17:45:27;38.50;;;4.88;;
63008;SDS011;49099;28.428;-16.488;2022-11-28T17:47:56;30.70;;;4.68;;
63008;SDS011;49099;28.428;-16.488;2022-11-28T17:50:23;27.75;;;5.10;;
63008;SDS011;49099;28.428;-16.488;2022-11-28T17:52:51;28.45;;;4.85;;
63008;SDS011;49099;28.428;-16.488;2022-11-28T17:55:18;31.63;;;5.07;;
63008;SDS011;49099;28.428;-16.488;2022-11-28T17:57:46;26.95;;;5.25;;
63008;SDS011;49099;28.428;-16.488;2022-11-28T18:00:13;27.05;;;5.07;;
63008;SDS011;49099;28.428;-16.488;2022-11-28T18:02:42;39.25;;;6.30;;
63008;SDS011;49099;28.428;-16.488;2022-11-28T18:05:09;32.10;;;4.97;;
63008;SDS011;49099;28.428;-16.488;2022-11-28T18:07:36;25.80;;;4.65;;
63008;SDS011;49099;28.428;-16.488;2022-11-28T18:10:03;22.35;;;4.35;;
63008;SDS011;49099;28.428;-16.488;2022-11-28T18:12:31;23.77;;;4.40;;